Terminal Aerodrome Forecast
Issued by NWS

Home | Current Version | Previous Version | Text Only | Print | Product List | Glossary On
Versions: 1 2 3 4 5 6 7 8 9 10 11 12 13 14 15 16 17
000
FTAK31 PANC 212324
TAFADU
TAF
PADU 212324Z 2200/2224 17005KT P6SM SCT050
     FM220900 13010G20KT P6SM SCT035 BKN050 OVC150
     FM221200 11018G28KT 4SM -SN BR SCT015 BKN025 OVC050
     FM221500 11025G35KT 2SM -SN BR BKN015
     FM221800 11030G45KT 1/4SM SN BLSN OVC004=

USA.gov is the U.S. government's official web portal to all federal, state and local government web resources and services.